Time;durP1;ratioP1;P1;durP2;ratioP2;P2;SDS_P1;SDS_P2;PMS_P1;PMS_P2;Temp;Humidity;BMP_temperature;BMP_pressure;BME280_temperature;BME280_humidity;BME280_pressure;Samples;Min_cycle;Max_cycle;Signal;HPM_P1;HPM_P2
2024/02/25 00:00:00;;;;;;;5.60;2.70;;;;;;;1.78;65.55;101142.78;5076860;28;20098;-68
2024/02/25 00:02:26;;;;;;;7.40;2.63;;;;;;;1.64;65.53;101111.34;5034170;28;20132;-67
2024/02/25 00:04:52;;;;;;;5.47;2.55;;;;;;;1.75;65.73;101156.38;5057589;28;20039;-68
2024/02/25 00:07:18;;;;;;;5.63;2.53;;;;;;;1.71;66.10;101144.19;5038144;28;20121;-68
2024/02/25 00:09:48;;;;;;;4.65;2.25;;;;;;;1.69;66.31;101142.38;5021488;28;20036;-69
2024/02/25 00:12:23;;;;;;;6.97;2.47;;;;;;;1.57;66.23;101110.16;5055382;28;20085;-69
2024/02/25 00:14:52;;;;;;;4.57;2.50;;;;;;;1.60;66.08;101125.69;5044748;28;20481;-68
2024/02/25 00:17:18;;;;;;;5.90;2.45;;;;;;;1.65;66.71;101146.47;5024791;28;20041;-69
2024/02/25 00:19:44;;;;;;;5.63;2.70;;;;;;;1.60;67.04;101140.22;5039105;28;20041;-69
2024/02/25 00:22:10;;;;;;;6.47;2.70;;;;;;;1.59;67.02;101133.34;5075647;28;20147;-69
2024/02/25 00:24:39;;;;;;;5.10;2.53;;;;;;;1.61;66.69;101137.72;5055137;28;20532;-69
2024/02/25 00:27:06;;;;;;;6.57;2.55;;;;;;;1.58;66.95;101131.56;5040486;28;20032;-69
2024/02/25 00:29:33;;;;;;;5.50;2.60;;;;;;;1.54;67.42;101124.53;5074519;28;20032;-70
2024/02/25 00:32:00;;;;;;;6.18;2.40;;;;;;;1.62;67.48;101139.50;5038034;28;20048;-70
2024/02/25 00:34:26;;;;;;;5.68;2.28;;;;;;;1.49;67.34;101107.22;5052269;28;20035;-69
2024/02/25 00:36:52;;;;;;;5.00;2.33;;;;;;;1.55;67.29;101132.28;5034707;28;20043;-68
2024/02/25 00:39:18;;;;;;;4.53;2.25;;;;;;;1.52;67.59;101123.56;5052395;28;20127;-68
2024/02/25 00:41:47;;;;;;;5.43;2.20;;;;;;;1.33;67.77;101107.28;5040699;28;20045;-67
2024/02/25 00:44:13;;;;;;;5.32;2.28;;;;;;;1.35;67.36;101103.09;5035835;28;20043;-68
2024/02/25 00:46:39;;;;;;;8.15;2.63;;;;;;;1.09;67.89;101055.66;5039508;28;20072;-69
2024/02/25 00:49:05;;;;;;;5.75;2.53;;;;;;;1.13;67.78;101071.25;5023431;28;20033;-67
2024/02/25 00:51:31;;;;;;;4.13;2.50;;;;;;;1.40;68.10;101117.03;5032280;28;20051;-68
2024/02/25 00:53:57;;;;;;;4.55;2.20;;;;;;;1.27;68.15;101100.16;5023591;28;20040;-68
2024/02/25 00:56:23;;;;;;;4.85;2.25;;;;;;;1.45;68.11;101130.94;5039741;28;20044;-69
2024/02/25 00:58:49;;;;;;;5.78;2.72;;;;;;;1.38;68.22;101121.22;5016622;28;20068;-67
2024/02/25 01:01:15;;;;;;;6.60;2.42;;;;;;;1.41;68.70;101121.38;5057401;28;20109;-68
2024/02/25 01:03:47;;;;;;;6.60;2.40;;;;;;;1.24;68.79;101082.06;5057033;28;20186;-68
2024/02/25 01:06:18;;;;;;;3.33;1.85;;;;;;;1.29;68.35;101101.13;5040741;28;20055;-66
2024/02/25 01:08:44;;;;;;;4.68;1.98;;;;;;;1.37;68.62;101104.06;5059715;28;20049;-68
2024/02/25 01:11:11;;;;;;;6.20;2.97;;;;;;;1.36;68.56;101120.25;5073960;28;20048;-66
2024/02/25 01:13:47;;;;;;;5.35;2.53;;;;;;;1.22;68.60;101128.91;5057313;28;20041;-66
2024/02/25 01:16:16;;;;;;;5.13;2.50;;;;;;;1.26;68.90;101116.34;5071194;28;20055;-68
2024/02/25 01:18:42;;;;;;;6.07;2.47;;;;;;;1.25;68.94;101108.56;5074953;28;20445;-66
2024/02/25 01:21:08;;;;;;;4.40;2.22;;;;;;;1.30;69.19;101114.81;5056766;28;20410;-66
2024/02/25 01:23:37;;;;;;;5.63;2.63;;;;;;;1.14;69.37;101121.75;5036515;28;20059;-67
2024/02/25 01:26:06;;;;;;;4.45;2.60;;;;;;;1.28;69.58;101127.56;5073530;28;20055;-68
2024/02/25 01:28:31;;;;;;;5.32;2.72;;;;;;;1.24;69.29;101110.25;5053021;28;20040;-68
2024/02/25 01:30:58;;;;;;;6.63;2.42;;;;;;;1.13;69.38;101088.31;5074464;28;20044;-67
2024/02/25 01:33:27;;;;;;;3.63;2.22;;;;;;;0.89;69.33;101038.47;5036906;28;20043;-69
2024/02/25 01:36:02;;;;;;;6.53;2.00;;;;;;;1.24;69.49;101102.56;5053670;28;20546;-69
2024/02/25 01:38:29;;;;;;;3.83;2.30;;;;;;;0.86;69.41;101040.00;5037112;28;20098;-68
2024/02/25 01:40:56;;;;;;;6.78;2.42;;;;;;;1.35;69.71;101126.19;5051458;28;20168;-68
2024/02/25 01:43:22;;;;;;;5.25;2.80;;;;;;;1.24;69.78;101117.06;5053220;28;20044;-68
2024/02/25 01:45:48;;;;;;;4.40;1.95;;;;;;;1.33;69.62;101150.88;5038121;28;20040;-68
2024/02/25 01:48:18;;;;;;;6.20;2.42;;;;;;;1.19;69.95;101124.53;5046501;28;20088;-68
2024/02/25 01:50:44;;;;;;;5.50;2.30;;;;;;;1.04;69.60;101132.31;5056138;28;20090;-66
2024/02/25 01:53:16;;;;;;;6.38;2.40;;;;;;;1.08;69.42;101113.72;5074733;28;21577;-68
2024/02/25 01:55:50;;;;;;;6.93;2.88;;;;;;;1.21;69.79;101143.44;5042777;28;20126;-66
2024/02/25 01:58:20;;;;;;;4.35;2.38;;;;;;;1.11;70.06;101119.03;5071403;28;20087;-67
2024/02/25 02:00:49;;;;;;;6.53;2.33;;;;;;;1.01;69.84;101106.53;5052465;28;20375;-68
2024/02/25 02:03:17;;;;;;;5.88;2.28;;;;;;;1.07;69.87;101113.66;5069549;28;20084;-68
2024/02/25 02:05:44;;;;;;;6.07;2.42;;;;;;;1.08;69.96;101108.59;5067530;28;20044;-67
2024/02/25 02:08:11;;;;;;;6.75;2.20;;;;;;;0.96;69.72;101105.44;5051607;28;20650;-67
2024/02/25 02:10:37;;;;;;;6.57;2.58;;;;;;;1.04;70.17;101116.94;5035321;28;20044;-68
2024/02/25 02:13:12;;;;;;;6.07;2.40;;;;;;;1.03;70.22;101112.59;5074022;28;20040;-68
2024/02/25 02:15:42;;;;;;;5.35;2.60;;;;;;;0.96;70.35;101092.63;5041068;28;20184;-69
2024/02/25 02:18:08;;;;;;;8.07;2.50;;;;;;;1.08;70.00;101139.38;5072944;28;20044;-67
2024/02/25 02:20:35;;;;;;;5.55;2.20;;;;;;;0.74;69.82;101064.19;5039867;28;20059;-67
2024/02/25 02:23:24;;;;;;;4.75;2.75;;;;;;;0.74;70.43;101077.00;5055637;28;20051;-67
2024/02/25 02:25:50;;;;;;;4.80;2.55;;;;;;;0.79;70.71;101099.44;5024266;28;20124;-69
2024/02/25 02:28:16;;;;;;;5.78;3.33;;;;;;;1.04;70.67;101133.22;5052729;28;20035;-68
2024/02/25 02:30:43;;;;;;;3.75;2.42;;;;;;;0.57;70.05;101072.69;5072666;28;20059;-66
2024/02/25 02:33:09;;;;;;;7.60;2.90;;;;;;;0.83;70.85;101111.59;5058167;28;20032;-68
2024/02/25 02:35:35;;;;;;;5.97;2.47;;;;;;;0.92;70.25;101117.19;5036577;28;20394;-69
2024/02/25 02:38:08;;;;;;;5.03;2.35;;;;;;;0.77;70.53;101101.94;5039105;28;20523;-68
2024/02/25 02:40:36;;;;;;;3.88;2.42;;;;;;;0.99;70.88;101133.78;5058049;28;20718;-68
2024/02/25 02:43:07;;;;;;;5.63;2.30;;;;;;;0.66;70.60;101068.06;5047807;28;20055;-68
2024/02/25 02:45:36;;;;;;;;;;;;;;;1.00;70.76;101151.81;5025902;28;20040;-68
2024/02/25 02:48:09;;;;;;;6.63;2.17;;;;;;;1.00;70.70;101156.03;5041203;28;20002;-68
2024/02/25 02:50:38;;;;;;;6.32;3.15;;;;;;;0.69;70.80;101091.25;5019141;28;20409;-67
2024/02/25 02:53:13;;;;;;;8.48;3.35;;;;;;;1.01;70.33;101143.31;5076971;28;20041;-67
2024/02/25 02:55:40;;;;;;;3.75;2.67;;;;;;;0.95;70.50;101125.03;5034198;28;20040;-69
2024/02/25 02:58:06;;;;;;;4.72;2.90;;;;;;;0.90;70.93;101121.34;5075049;28;20123;-69
2024/02/25 03:00:35;;;;;;;6.72;2.60;;;;;;;0.94;70.60;101127.53;5025029;28;20044;-70
2024/02/25 03:03:06;;;;;;;7.80;2.75;;;;;;;1.04;70.43;101163.97;5034108;28;20052;-69
2024/02/25 03:05:32;;;;;;;4.65;2.78;;;;;;;0.86;70.96;101127.16;5022448;28;20426;-68
2024/02/25 03:07:58;;;;;;;5.40;3.10;;;;;;;1.01;71.07;101138.19;5058330;28;20113;-68
2024/02/25 03:10:24;;;;;;;7.00;2.92;;;;;;;1.04;70.48;101158.84;5075810;28;20495;-69
2024/02/25 03:12:53;;;;;;;6.95;2.85;;;;;;;1.06;70.95;101140.97;5058211;28;20625;-70
2024/02/25 03:15:19;;;;;;;7.07;3.20;;;;;;;1.07;70.87;101137.59;5076530;28;20514;-66
2024/02/25 03:17:46;;;;;;;3.58;2.28;;;;;;;1.02;70.92;101144.19;5058555;28;20059;-68
2024/02/25 03:20:13;;;;;;;3.75;2.28;;;;;;;0.87;70.92;101142.59;5056460;28;20090;-67
2024/02/25 03:22:40;;;;;;;6.75;2.85;;;;;;;0.80;70.65;101126.81;5041816;28;20047;-68
2024/02/25 03:25:08;;;;;;;5.55;2.90;;;;;;;0.39;70.60;101095.66;5034590;28;20490;-68
2024/02/25 03:27:41;;;;;;;4.78;2.55;;;;;;;0.80;70.75;101158.44;5039337;28;20043;-67
2024/02/25 03:30:09;;;;;;;5.03;2.55;;;;;;;0.75;70.81;101139.41;5076598;28;20036;-69
2024/02/25 03:32:35;;;;;;;7.72;3.13;;;;;;;0.20;70.90;101040.03;5058647;28;20423;-67
2024/02/25 03:35:02;;;;;;;10.23;3.17;;;;;;;0.59;70.75;101112.94;5057017;28;20043;-68
2024/02/25 03:37:31;;;;;;;6.10;2.42;;;;;;;0.75;70.84;101134.28;5058567;28;20056;-67
2024/02/25 03:39:57;;;;;;;5.93;2.55;;;;;;;0.59;71.75;101127.47;5078128;28;20067;-70
2024/02/25 03:42:23;;;;;;;6.47;3.00;;;;;;;0.54;71.38;101106.72;5041639;28;20806;-71
2024/02/25 03:44:49;;;;;;;4.07;2.67;;;;;;;0.77;71.02;101152.28;5042261;28;20037;-70
2024/02/25 03:47:15;;;;;;;4.18;2.85;;;;;;;0.72;71.68;101119.59;5053450;28;20040;-70
2024/02/25 03:49:41;;;;;;;4.75;2.83;;;;;;;0.79;71.45;101133.59;5055559;28;20102;-70
2024/02/25 03:52:10;;;;;;;8.65;3.25;;;;;;;0.82;71.42;101128.66;5074977;28;20037;-70
2024/02/25 03:54:36;;;;;;;5.00;2.83;;;;;;;0.69;71.57;101113.44;5040574;28;20081;-71
2024/02/25 03:57:03;;;;;;;6.20;2.85;;;;;;;0.59;71.00;101092.47;5055714;28;20060;-69
2024/02/25 03:59:29;;;;;;;4.22;2.63;;;;;;;0.79;71.16;101125.91;5039123;28;20036;-70
2024/02/25 04:02:12;;;;;;;5.07;2.80;;;;;;;0.73;71.12;101136.75;5059015;28;20036;-71
2024/02/25 04:04:46;;;;;;;3.92;2.50;;;;;;;0.75;71.07;101136.84;5024964;28;20530;-68
2024/02/25 04:07:18;;;;;;;4.45;2.47;;;;;;;0.72;71.73;101129.00;5040018;28;20498;-68
2024/02/25 04:09:53;;;;;;;6.07;2.90;;;;;;;0.60;71.48;101124.97;5056577;28;20597;-68
2024/02/25 04:12:19;;;;;;;6.22;2.67;;;;;;;0.55;71.32;101118.72;5038847;28;20051;-67
2024/02/25 04:14:48;;;;;;;4.35;2.55;;;;;;;0.54;71.29;101099.03;5041785;28;20044;-67
2024/02/25 04:17:14;;;;;;;5.80;2.88;;;;;;;0.58;71.65;101111.19;5069651;28;20048;-67
2024/02/25 04:19:40;;;;;;;5.28;2.75;;;;;;;0.42;71.39;101080.44;5070165;28;20143;-67
2024/02/25 04:22:06;;;;;;;7.00;2.80;;;;;;;0.80;71.25;101127.69;5028932;28;20108;-67
2024/02/25 04:24:32;;;;;;;5.95;2.58;;;;;;;0.74;71.48;101143.63;5013425;28;20131;-68
2024/02/25 04:27:03;;;;;;;7.43;2.63;;;;;;;0.63;71.30;101111.44;5026010;28;20048;-68
2024/02/25 04:29:29;;;;;;;8.68;2.70;;;;;;;0.79;71.41;101143.00;5054810;28;20525;-66
2024/02/25 04:31:55;;;;;;;5.25;2.90;;;;;;;0.71;71.06;101157.97;5038522;28;20044;-66
2024/02/25 04:34:21;;;;;;;5.68;2.55;;;;;;;0.77;71.13;101189.06;5039336;28;20047;-67
2024/02/25 04:36:48;;;;;;;5.53;2.42;;;;;;;0.68;71.05;101163.78;5023739;28;20044;-67
2024/02/25 04:39:16;;;;;;;3.53;2.35;;;;;;;0.79;71.25;101168.63;5074389;28;20044;-67
2024/02/25 04:41:42;;;;;;;6.78;2.67;;;;;;;0.80;71.41;101176.38;5046906;28;20040;-66
2024/02/25 04:44:10;;;;;;;4.75;2.78;;;;;;;0.53;70.69;101125.47;5020828;28;20680;-68
2024/02/25 04:46:38;;;;;;;6.45;3.35;;;;;;;0.64;71.04;101163.56;5040867;28;20036;-69
2024/02/25 04:49:04;;;;;;;5.18;2.67;;;;;;;0.72;70.77;101172.56;5053069;28;20036;-70
2024/02/25 04:51:34;;;;;;;7.05;2.72;;;;;;;0.63;70.54;101174.59;5037874;28;20142;-70
2024/02/25 04:54:03;;;;;;;4.68;2.65;;;;;;;0.68;70.86;101186.84;5027620;28;20057;-69
2024/02/25 04:56:32;;;;;;;5.32;2.72;;;;;;;0.70;71.44;101181.84;5055604;28;20402;-69
2024/02/25 04:59:01;;;;;;;6.15;2.60;;;;;;;0.62;70.79;101167.72;5054266;28;20205;-68
2024/02/25 05:01:27;;;;;;;4.72;2.88;;;;;;;0.74;71.13;101186.34;5045513;28;20135;-68
2024/02/25 05:03:53;;;;;;;4.47;2.63;;;;;;;0.71;70.99;101193.84;5055432;28;20076;-68
2024/02/25 05:06:19;;;;;;;6.07;2.60;;;;;;;0.59;70.58;101179.56;5072826;28;20048;-68
2024/02/25 05:08:47;;;;;;;5.70;2.70;;;;;;;0.56;71.22;101166.59;5056806;28;20158;-69
2024/02/25 05:11:14;;;;;;;3.67;2.45;;;;;;;0.71;71.05;101197.28;5056489;28;20036;-67
2024/02/25 05:13:44;;;;;;;6.72;2.83;;;;;;;0.57;70.93;101170.03;5038258;28;20134;-69
2024/02/25 05:16:10;;;;;;;6.57;2.72;;;;;;;0.54;70.75;101169.88;5073156;28;20036;-67
2024/02/25 05:18:36;;;;;;;4.38;2.67;;;;;;;0.67;70.31;101192.78;5055972;28;20028;-67
2024/02/25 05:21:02;;;;;;;4.75;2.83;;;;;;;0.57;71.16;101170.03;5037047;28;20536;-69
2024/02/25 05:23:29;;;;;;;4.82;2.47;;;;;;;0.62;70.82;101177.97;5026805;28;20558;-69
2024/02/25 05:25:55;;;;;;;8.18;3.00;;;;;;;0.59;70.97;101187.25;5074603;28;20532;-69
2024/02/25 05:28:21;;;;;;;5.03;2.45;;;;;;;0.75;71.06;101217.16;5053803;28;20642;-67
2024/02/25 05:30:47;;;;;;;7.13;2.78;;;;;;;0.50;70.50;101175.63;5021302;28;20052;-70
2024/02/25 05:33:13;;;;;;;5.07;3.08;;;;;;;0.71;70.53;101209.22;5056772;28;20475;-69
2024/02/25 05:35:42;;;;;;;4.25;2.83;;;;;;;0.63;70.46;101208.81;5057932;28;20144;-69
2024/02/25 05:38:08;;;;;;;6.50;3.10;;;;;;;0.60;70.58;101188.16;5039171;28;20036;-67
2024/02/25 05:40:40;;;;;;;4.22;2.47;;;;;;;0.79;70.38;101213.06;5022277;28;20108;-67
2024/02/25 05:43:10;;;;;;;3.72;2.35;;;;;;;0.38;70.41;101163.03;5058545;28;20139;-69
2024/02/25 05:45:36;;;;;;;5.22;2.80;;;;;;;0.69;70.82;101183.50;5075698;28;20043;-68
2024/02/25 05:48:06;;;;;;;6.93;2.70;;;;;;;0.67;70.75;101186.78;5041830;28;20419;-68
2024/02/25 05:50:33;;;;;;;5.03;2.63;;;;;;;0.66;70.76;101190.16;5076989;28;20038;-67
2024/02/25 05:52:59;;;;;;;4.28;1.90;;;;;;;0.86;70.85;101194.66;5077320;28;20036;-67
2024/02/25 05:55:25;;;;;;;3.88;2.20;;;;;;;0.78;70.61;101193.34;5059573;28;20117;-67
2024/02/25 05:57:51;;;;;;;4.20;2.80;;;;;;;0.77;70.68;101183.03;5076954;28;20045;-67
2024/02/25 06:00:17;;;;;;;7.47;3.25;;;;;;;0.82;70.49;101207.22;5042134;28;20089;-68
2024/02/25 06:02:46;;;;;;;5.35;2.65;;;;;;;0.78;70.11;101189.94;5053178;28;20059;-67
2024/02/25 06:05:16;;;;;;;5.57;2.47;;;;;;;0.77;70.54;101183.03;5061537;28;20033;-67
2024/02/25 06:07:43;;;;;;;3.45;2.03;;;;;;;0.84;70.79;101205.63;5059051;28;20075;-68
2024/02/25 06:10:10;;;;;;;5.55;2.85;;;;;;;0.92;70.35;101208.59;5040328;28;20047;-68
2024/02/25 06:12:37;;;;;;;5.10;2.63;;;;;;;0.71;70.53;101157.97;5034047;28;20071;-69
2024/02/25 06:15:06;;;;;;;4.85;2.80;;;;;;;1.02;70.28;101206.59;5051096;28;20047;-69
2024/02/25 06:17:33;;;;;;;6.53;2.42;;;;;;;0.79;70.64;101145.56;5028732;28;20102;-71
2024/02/25 06:19:59;;;;;;;6.07;2.58;;;;;;;1.04;70.00;101202.44;5057803;28;20040;-71
2024/02/25 06:22:25;;;;;;;3.58;2.60;;;;;;;0.98;70.01;101193.56;5042540;28;20152;-69
2024/02/25 06:24:51;;;;;;;4.32;2.55;;;;;;;1.10;70.14;101208.69;5032192;28;20373;-68
2024/02/25 06:27:17;;;;;;;5.85;2.70;;;;;;;1.10;69.52;101198.44;5059968;28;20144;-69
2024/02/25 06:29:44;;;;;;;5.18;2.70;;;;;;;1.05;69.73;101191.38;5051490;28;20072;-69
2024/02/25 06:32:10;;;;;;;7.55;2.60;;;;;;;1.09;69.91;101184.72;5058720;28;20039;-67
2024/02/25 06:34:36;;;;;;;4.47;2.65;;;;;;;1.31;70.67;101191.84;5071927;28;20522;-68
2024/02/25 06:37:02;;;;;;;4.00;1.90;;;;;;;1.31;69.85;101173.00;5053455;28;20510;-67
2024/02/25 06:39:28;;;;;;;6.15;2.53;;;;;;;1.52;69.62;101200.53;5056383;28;20071;-64
2024/02/25 06:41:55;;;;;;;4.75;2.35;;;;;;;1.48;69.85;101194.38;5053437;28;20153;-67
2024/02/25 06:44:21;;;;;;;5.13;2.13;;;;;;;1.61;69.67;101219.84;5067902;28;20036;-68
2024/02/25 06:46:46;;;;;;;5.50;2.63;;;;;;;1.60;69.63;101204.38;5047771;28;20113;-66
2024/02/25 06:49:13;;;;;;;4.88;2.80;;;;;;;1.42;69.69;101169.31;5071954;28;20056;-69
2024/02/25 06:51:39;;;;;;;4.88;2.85;;;;;;;1.54;69.28;101211.75;5049645;28;20487;-65
2024/02/25 06:54:05;;;;;;;4.75;2.55;;;;;;;1.67;69.24;101221.84;5072069;28;20062;-66
2024/02/25 06:56:32;;;;;;;4.63;2.53;;;;;;;1.55;69.41;101203.25;5033985;28;20419;-67
2024/02/25 06:58:58;;;;;;;5.72;2.80;;;;;;;1.47;68.96;101188.34;5073066;28;20399;-69
2024/02/25 07:01:24;;;;;;;7.43;2.55;;;;;;;1.53;69.52;101192.03;5041058;28;20509;-73
2024/02/25 07:03:50;;;;;;;5.10;2.33;;;;;;;1.62;69.06;101220.75;5057294;28;20040;-69
2024/02/25 07:06:16;;;;;;;5.63;2.45;;;;;;;1.52;69.10;101201.44;5035913;28;20105;-62
2024/02/25 07:08:45;;;;;;;4.60;2.50;;;;;;;1.52;68.49;101205.69;5071788;28;20791;-65
2024/02/25 07:11:18;;;;;;;9.57;2.58;;;;;;;1.48;68.88;101194.38;5023620;28;20040;-65
2024/02/25 07:13:46;;;;;;;4.88;2.60;;;;;;;1.63;68.77;101218.25;5035306;28;20119;-67
2024/02/25 07:16:13;;;;;;;4.40;2.42;;;;;;;1.64;68.36;101219.13;5061300;28;20552;-68
2024/02/25 07:18:40;;;;;;;6.65;2.70;;;;;;;1.54;68.70;101180.97;5055059;28;20040;-67
2024/02/25 07:21:08;;;;;;;3.08;2.03;;;;;;;1.69;68.09;101209.97;5056185;28;20064;-67
2024/02/25 07:23:39;;;;;;;5.35;2.42;;;;;;;1.48;68.16;101187.56;5057668;28;20082;-65
2024/02/25 07:26:07;;;;;;;5.00;2.42;;;;;;;1.27;67.78;101159.16;5041013;28;20130;-67
2024/02/25 07:28:33;;;;;;;4.60;2.42;;;;;;;1.13;68.18;101162.69;5041879;28;20036;-68
2024/02/25 07:31:03;;;;;;;3.28;2.22;;;;;;;1.49;68.06;101204.72;5020609;28;20044;-65
2024/02/25 07:33:32;;;;;;;;;;;;;;;1.39;67.41;101188.78;5020777;28;20052;-68
2024/02/25 07:35:59;;;;;;;6.72;2.70;;;;;;;1.41;68.25;101188.06;5025750;28;20352;-66
2024/02/25 07:38:25;;;;;;;6.85;2.00;;;;;;;1.29;68.14;101169.47;5057264;28;20502;-66
2024/02/25 07:40:52;;;;;;;5.10;2.50;;;;;;;1.40;67.79;101183.75;5075217;28;20139;-66
2024/02/25 07:43:18;;;;;;;5.28;2.25;;;;;;;1.14;67.40;101149.94;5054481;28;20044;-64
2024/02/25 07:45:47;;;;;;;4.93;2.40;;;;;;;1.45;67.53;101184.84;5053515;28;20051;-68
2024/02/25 07:48:13;;;;;;;5.82;2.83;;;;;;;1.42;67.43;101194.97;5059255;28;20418;-66
2024/02/25 07:50:39;;;;;;;6.53;2.50;;;;;;;1.63;67.82;101200.28;5053470;28;20044;-65
2024/02/25 07:53:05;;;;;;;4.28;2.40;;;;;;;1.80;67.55;101211.38;5068423;28;20058;-65
2024/02/25 07:55:31;;;;;;;5.68;2.40;;;;;;;1.87;67.09;101201.44;5038507;28;20044;-66
2024/02/25 07:57:57;;;;;;;8.57;2.83;;;;;;;1.87;67.22;101212.56;5036627;28;20047;-66
2024/02/25 08:00:24;;;;;;;4.65;2.47;;;;;;;1.81;66.92;101207.13;5070687;28;20044;-66
2024/02/25 08:02:53;;;;;;;6.75;2.90;;;;;;;1.89;66.24;101213.53;5035982;28;20140;-65
2024/02/25 08:05:19;;;;;;;7.00;2.20;;;;;;;1.82;66.72;101210.59;5051627;28;20060;-68
2024/02/25 08:07:48;;;;;;;5.10;2.40;;;;;;;1.91;66.77;101199.06;5053916;28;20036;-67
2024/02/25 08:10:15;;;;;;;6.10;2.50;;;;;;;1.75;66.72;101170.91;5052270;28;20556;-66
2024/02/25 08:12:41;;;;;;;4.50;2.40;;;;;;;1.88;66.37;101187.75;5035071;28;20035;-65
2024/02/25 08:15:08;;;;;;;5.07;2.70;;;;;;;1.89;66.54;101176.69;5069597;28;20075;-65
2024/02/25 08:17:36;;;;;;;5.15;2.33;;;;;;;2.02;66.08;101198.69;5052502;28;20346;-69
2024/02/25 08:20:06;;;;;;;4.30;2.60;;;;;;;2.16;66.35;101191.66;5053056;28;20040;-68
2024/02/25 08:22:33;;;;;;;6.72;2.70;;;;;;;2.09;65.85;101201.66;5036831;28;20047;-68
2024/02/25 08:24:59;;;;;;;3.75;2.20;;;;;;;2.11;65.96;101207.72;5032975;28;20105;-66
2024/02/25 08:27:32;;;;;;;4.05;2.55;;;;;;;2.11;65.72;101206.88;5033960;28;20131;-67
2024/02/25 08:29:59;;;;;;;4.22;2.40;;;;;;;2.12;66.12;101213.75;5035654;28;20044;-65
2024/02/25 08:32:25;;;;;;;6.70;2.33;;;;;;;2.11;65.14;101247.94;5054304;28;20050;-67
2024/02/25 08:34:54;;;;;;;7.72;2.50;;;;;;;2.07;65.48;101243.47;5049662;28;20044;-67
2024/02/25 08:37:27;;;;;;;5.22;2.45;;;;;;;2.04;65.54;101231.38;5057352;28;20379;-68
2024/02/25 08:39:54;;;;;;;4.70;2.42;;;;;;;2.10;65.71;101225.66;5019956;28;20051;-65
2024/02/25 08:42:21;;;;;;;5.05;2.25;;;;;;;2.06;65.19;101240.03;5026599;28;20091;-66
2024/02/25 08:44:48;;;;;;;6.63;2.47;;;;;;;1.89;64.79;101233.16;5053210;28;20043;-66
2024/02/25 08:47:14;;;;;;;6.05;2.72;;;;;;;1.86;65.22;101225.34;5071104;28;20089;-67
2024/02/25 08:49:43;;;;;;;4.70;2.40;;;;;;;1.91;64.83;101245.28;5070252;28;20864;-68
2024/02/25 08:52:09;;;;;;;5.20;2.40;;;;;;;1.89;64.85;101243.44;5040403;28;20140;-64
2024/02/25 08:54:39;;;;;;;5.88;2.88;;;;;;;1.94;64.65;101236.84;5052019;28;20174;-70
2024/02/25 08:57:05;;;;;;;5.72;3.50;;;;;;;1.89;65.16;101221.22;5016471;28;20046;-66
2024/02/25 08:59:32;;;;;;;4.60;2.17;;;;;;;2.05;64.92;101216.81;5034223;28;20135;-64
2024/02/25 09:01:59;;;;;;;3.47;1.88;;;;;;;2.13;64.43;101232.59;5069989;28;20035;-63
2024/02/25 09:04:27;;;;;;;4.13;1.98;;;;;;;2.00;64.52;101228.56;5049485;28;20068;-64
2024/02/25 09:06:58;;;;;;;4.32;2.30;;;;;;;1.90;64.67;101210.16;5034154;28;20040;-65
2024/02/25 09:09:25;;;;;;;4.90;2.50;;;;;;;1.75;63.88;101238.50;5019955;28;20075;-65
2024/02/25 09:11:51;;;;;;;7.32;2.47;;;;;;;1.79;64.25;101219.00;5069238;28;20062;-65
2024/02/25 09:14:17;;;;;;;5.45;2.35;;;;;;;1.90;64.18;101223.00;5022954;28;20102;-64
2024/02/25 09:16:43;;;;;;;5.63;2.88;;;;;;;2.01;64.31;101235.44;5069181;28;20526;-65
2024/02/25 09:19:10;;;;;;;5.88;2.45;;;;;;;2.17;64.25;101243.13;5045989;28;20116;-64
2024/02/25 09:21:37;;;;;;;3.63;2.08;;;;;;;2.23;63.77;101260.50;5036053;28;20121;-64
2024/02/25 09:24:04;;;;;;;5.95;2.17;;;;;;;1.99;63.31;101216.56;5037183;28;20377;-63
2024/02/25 09:26:31;;;;;;;5.85;2.60;;;;;;;2.21;63.87;101252.72;5070870;28;20051;-66
2024/02/25 09:28:58;;;;;;;3.95;2.10;;;;;;;2.34;63.64;101245.63;5055247;28;20348;-69
2024/02/25 09:31:24;;;;;;;4.97;2.50;;;;;;;2.27;63.92;101218.75;5030204;28;20539;-67
2024/02/25 09:33:52;;;;;;;4.32;2.30;;;;;;;2.51;62.92;101239.56;5056389;28;20044;-68
2024/02/25 09:36:23;;;;;;;5.25;2.45;;;;;;;2.57;63.34;101256.97;5053489;28;20562;-66
2024/02/25 09:38:55;;;;;;;4.15;2.45;;;;;;;2.64;63.16;101261.59;5055158;28;20178;-67
2024/02/25 09:41:28;;;;;;;5.28;2.60;;;;;;;2.42;63.11;101231.47;5040693;28;20040;-65
2024/02/25 09:43:56;;;;;;;4.13;2.25;;;;;;;2.63;62.47;101279.53;5072371;28;20040;-75
2024/02/25 09:46:25;;;;;;;5.40;2.60;;;;;;;2.53;62.31;101252.53;5053766;28;20560;-65
2024/02/25 09:48:52;;;;;;;3.70;2.47;;;;;;;2.43;62.49;101230.63;5041298;28;20032;-67
2024/02/25 09:51:22;;;;;;;2.78;2.00;;;;;;;2.37;61.90;101226.06;5070898;28;20154;-66
2024/02/25 09:53:53;;;;;;;4.65;2.10;;;;;;;2.32;61.63;101216.41;5037994;28;20051;-64
2024/02/25 09:56:23;;;;;;;6.13;2.30;;;;;;;2.66;62.50;101249.69;5042101;28;20040;-66
2024/02/25 09:58:49;;;;;;;10.38;3.00;;;;;;;2.78;61.85;101233.97;5038486;28;20299;-67
2024/02/25 10:01:15;;;;;;;4.63;2.53;;;;;;;2.88;61.69;101255.84;5058596;28;20048;-66
2024/02/25 10:03:42;;;;;;;4.93;2.55;;;;;;;2.91;62.04;101265.38;5042366;28;20048;-64
2024/02/25 10:06:11;;;;;;;4.25;2.10;;;;;;;2.80;60.67;101245.19;5033963;28;20047;-72
2024/02/25 10:08:47;;;;;;;5.22;2.60;;;;;;;2.84;61.54;101249.69;5037462;28;20044;-73
2024/02/25 10:11:13;;;;;;;3.80;2.05;;;;;;;2.36;61.05;101159.22;5029023;28;20047;-74
2024/02/25 10:13:45;;;;;;;3.85;2.40;;;;;;;2.94;61.28;101250.97;5023319;28;20616;-70
2024/02/25 10:16:17;;;;;;;5.88;2.45;;;;;;;2.76;60.77;101188.44;5019529;28;20510;-69
2024/02/25 10:18:45;;;;;;;3.60;2.20;;;;;;;3.28;60.95;101247.31;5023253;28;20036;-69
2024/02/25 10:21:13;;;;;;;4.97;2.35;;;;;;;3.31;59.86;101167.69;5016329;28;20041;-70
2024/02/25 10:23:40;;;;;;;4.43;2.33;;;;;;;3.69;59.85;101244.78;5018886;28;20048;-70
2024/02/25 10:26:20;;;;;;;3.08;1.63;;;;;;;3.64;59.37;101256.59;5034223;28;20044;-72
2024/02/25 10:28:47;;;;;;;4.15;2.20;;;;;;;3.40;59.28;101239.25;5018374;28;20025;-72
2024/02/25 10:31:16;;;;;;;3.53;2.35;;;;;;;3.47;59.73;101223.28;5033040;28;20045;-71
2024/02/25 10:33:44;;;;;;;3.60;1.75;;;;;;;3.65;58.30;101234.28;5020750;28;20044;-70
2024/02/25 10:36:16;;;;;;;3.10;1.85;;;;;;;3.55;57.86;101228.75;5014582;28;20135;-71
2024/02/25 10:38:47;;;;;;;5.55;2.50;;;;;;;3.45;58.33;101237.78;5041933;28;20032;-69
2024/02/25 10:41:15;;;;;;;2.47;1.80;;;;;;;3.14;57.50;101184.09;5035547;28;20057;-70
2024/02/25 10:43:44;;;;;;;3.90;2.40;;;;;;;3.44;57.57;101223.16;5018679;28;20037;-70
2024/02/25 10:46:34;;;;;;;6.05;1.92;;;;;;;3.57;57.79;101229.69;5016640;28;20048;-69
2024/02/25 10:49:03;;;;;;;4.45;2.25;;;;;;;3.51;57.55;101228.56;5042723;28;20033;-70
2024/02/25 10:51:29;;;;;;;4.05;2.63;;;;;;;3.33;56.94;101224.34;5050296;28;20155;-71
2024/02/25 10:53:56;;;;;;;3.95;2.17;;;;;;;3.39;56.93;101229.78;5050852;28;20423;-71
2024/02/25 10:56:24;;;;;;;3.65;2.17;;;;;;;3.32;56.02;101240.59;5031695;28;20052;-72
2024/02/25 10:58:56;;;;;;;4.57;2.33;;;;;;;3.48;56.28;101234.44;5057854;28;20052;-67
2024/02/25 11:01:24;;;;;;;3.30;2.20;;;;;;;3.42;56.54;101205.91;5011972;28;20040;-70
2024/02/25 11:03:51;;;;;;;4.13;2.17;;;;;;;3.61;56.38;101225.56;5046253;28;20041;-69
2024/02/25 11:06:33;;;;;;;4.50;2.30;;;;;;;3.66;56.12;101225.75;5022011;28;20044;-72
2024/02/25 11:09:10;;;;;;;3.67;2.20;;;;;;;3.42;55.70;101224.78;5034619;28;20699;-70
2024/02/25 11:11:40;;;;;;;4.80;2.10;;;;;;;3.37;55.40;101222.81;5046017;28;20056;-70
2024/02/25 11:14:13;;;;;;;5.18;2.00;;;;;;;3.54;55.87;101227.00;5055012;28;20044;-70
2024/02/25 11:16:46;;;;;;;3.40;1.98;;;;;;;3.48;55.92;101203.56;5033001;28;20141;-72
2024/02/25 11:19:17;;;;;;;4.32;2.30;;;;;;;3.63;54.66;101229.06;5027677;28;20036;-69
2024/02/25 11:21:43;;;;;;;3.38;1.90;;;;;;;3.45;54.92;101211.16;5037466;28;20045;-68
2024/02/25 11:24:12;;;;;;;3.78;1.80;;;;;;;3.40;54.92;101202.38;5057752;28;20040;-67
2024/02/25 11:26:44;;;;;;;3.53;2.13;;;;;;;3.44;54.65;101215.44;5049953;28;20055;-66
2024/02/25 11:29:21;;;;;;;5.15;2.10;;;;;;;3.40;54.61;101210.09;5055921;28;20044;-65
2024/02/25 11:31:53;;;;;;;4.38;1.98;;;;;;;3.46;54.18;101220.63;5053109;28;20069;-67
2024/02/25 11:34:24;;;;;;;5.07;1.90;;;;;;;3.12;54.42;101194.31;5035223;28;20788;-69
2024/02/25 11:36:55;;;;;;;4.57;1.73;;;;;;;3.33;55.05;101213.19;5031377;28;20072;-67